createdAt,value
2019-02-08T00:02:12.864Z,3.10
2019-02-08T00:07:14.106Z,3.20
2019-02-08T00:12:15.349Z,3.20
2019-02-08T00:17:16.605Z,3.10
2019-02-08T00:22:17.866Z,3.10
2019-02-08T00:27:19.313Z,3.10
2019-02-08T00:32:20.578Z,3.20
2019-02-08T00:37:21.829Z,3.30
2019-02-08T00:42:23.143Z,3.40
2019-02-08T00:47:24.408Z,3.40
2019-02-08T00:52:25.973Z,3.40
2019-02-08T00:57:27.199Z,3.40
2019-02-08T01:02:28.410Z,3.40
2019-02-08T01:07:29.899Z,3.40
2019-02-08T01:12:31.242Z,3.40
2019-02-08T01:17:32.491Z,3.50
2019-02-08T01:22:33.737Z,3.40
2019-02-08T01:27:34.998Z,3.40
2019-02-08T01:32:36.235Z,3.50
2019-02-08T01:37:37.577Z,3.60
2019-02-08T01:42:38.825Z,3.70
2019-02-08T01:47:40.180Z,3.80
2019-02-08T01:52:41.452Z,3.90
2019-02-08T01:57:43.003Z,3.90
2019-02-08T02:02:44.536Z,3.90
2019-02-08T02:07:46.214Z,3.80
2019-02-08T02:12:47.661Z,3.90
2019-02-08T02:17:49.015Z,3.90
2019-02-08T02:22:50.672Z,3.80
2019-02-08T02:27:52.022Z,3.80
2019-02-08T02:32:53.384Z,3.80
2019-02-08T02:37:54.724Z,3.90
2019-02-08T02:42:56.072Z,3.90
2019-02-08T02:47:57.532Z,3.90
2019-02-08T02:52:58.887Z,3.90
2019-02-08T02:58:00.539Z,3.90
2019-02-08T03:03:02.080Z,3.80
2019-02-08T03:08:06.621Z,3.90
2019-02-08T03:13:08.858Z,3.80
2019-02-08T03:18:10.300Z,3.90
2019-02-08T03:23:11.756Z,3.90
2019-02-08T03:28:12.987Z,4.00
2019-02-08T03:33:14.744Z,3.90
2019-02-08T03:38:16.063Z,3.70
2019-02-08T03:43:17.328Z,3.60
2019-02-08T03:48:18.762Z,3.50
2019-02-08T03:53:20.013Z,3.60
2019-02-08T03:58:21.360Z,3.60
2019-02-08T04:03:22.584Z,3.80
2019-02-08T04:08:23.848Z,3.80
2019-02-08T04:13:25.097Z,3.80
2019-02-08T04:18:26.433Z,3.80
2019-02-08T04:23:27.770Z,3.80
2019-02-08T04:28:29.009Z,3.90
2019-02-08T04:33:30.242Z,3.90
2019-02-08T04:38:31.481Z,3.90
2019-02-08T04:43:32.732Z,3.90
2019-02-08T04:48:33.983Z,3.90
2019-02-08T04:53:35.216Z,3.90
2019-02-08T04:58:36.461Z,3.90
2019-02-08T05:03:38.026Z,3.90
2019-02-08T05:08:39.276Z,3.90
2019-02-08T05:13:40.496Z,3.90
2019-02-08T05:18:41.746Z,4.00
2019-02-08T05:23:42.996Z,4.00
2019-02-08T05:28:44.243Z,4.20
2019-02-08T05:33:45.484Z,4.30
2019-02-08T05:38:46.748Z,4.30
2019-02-08T05:43:48.014Z,4.30
2019-02-08T05:48:49.263Z,4.30
2019-02-08T05:53:50.607Z,4.30
2019-02-08T05:58:51.842Z,4.40
2019-02-08T06:03:53.091Z,4.30
2019-02-08T06:08:54.387Z,4.40
2019-02-08T06:13:55.656Z,4.40
2019-02-08T06:18:56.902Z,4.40
2019-02-08T06:23:58.144Z,4.40
2019-02-08T06:28:59.386Z,4.50
2019-02-08T06:34:00.625Z,4.50
2019-02-08T06:39:04.268Z,4.50
2019-02-08T06:44:05.734Z,4.50
2019-02-08T06:49:07.196Z,4.70
2019-02-08T06:54:08.432Z,4.70
2019-02-08T06:59:11.579Z,4.70
2019-02-08T07:04:21.498Z,4.70
2019-02-08T07:09:27.660Z,4.80
2019-02-08T07:14:33.695Z,5.00
2019-02-08T07:19:42.751Z,5.10
2019-02-08T07:24:45.869Z,5.10
2019-02-08T07:29:49.017Z,5.20
2019-02-08T07:34:53.009Z,5.30
2019-02-08T07:40:01.279Z,5.50
2019-02-08T07:45:08.931Z,5.70
2019-02-08T07:50:17.773Z,5.70
2019-02-08T07:55:30.354Z,5.70
2019-02-08T08:00:36.981Z,5.70
2019-02-08T08:05:57.539Z,5.70
2019-02-08T08:11:12.938Z,5.70
2019-02-08T08:16:26.033Z,5.70
2019-02-08T08:21:32.125Z,5.70
2019-02-08T08:26:36.875Z,5.70
2019-02-08T08:31:44.155Z,5.80
2019-02-08T08:37:06.264Z,5.80
2019-02-08T08:42:25.093Z,5.70
2019-02-08T08:47:50.226Z,5.70
2019-02-08T08:53:17.633Z,5.90
2019-02-08T08:58:59.234Z,5.80
2019-02-08T09:04:23.103Z,6.00
2019-02-08T09:09:51.201Z,6.10
2019-02-08T09:15:16.311Z,6.20
2019-02-08T09:20:42.947Z,6.20
2019-02-08T09:26:22.157Z,6.30
2019-02-08T09:31:46.622Z,6.40
2019-02-08T09:37:28.872Z,6.30
2019-02-08T09:43:00.021Z,6.30
2019-02-08T09:48:47.332Z,6.30
2019-02-08T09:54:24.481Z,6.30
2019-02-08T10:00:03.358Z,6.40
2019-02-08T10:05:34.299Z,6.40
2019-02-08T10:10:50.178Z,6.50
2019-02-08T10:16:27.029Z,6.70
2019-02-08T10:21:56.644Z,6.80
2019-02-08T10:27:46.553Z,6.90
2019-02-08T10:33:14.773Z,7.00
2019-02-08T10:38:42.536Z,7.10
2019-02-08T10:44:29.231Z,7.10
2019-02-08T10:49:51.034Z,7.30
2019-02-08T10:55:37.860Z,7.50
2019-02-08T11:01:02.810Z,7.60
2019-02-08T11:06:41.632Z,7.90
2019-02-08T11:12:04.101Z,7.80
2019-02-08T11:17:36.555Z,7.80
2019-02-08T11:22:37.904Z,7.70
2019-02-08T11:27:39.157Z,7.80
2019-02-08T11:32:43.145Z,7.70
2019-02-08T11:37:43.864Z,7.80
2019-02-08T11:42:45.132Z,7.90
2019-02-08T11:47:46.616Z,7.90
2019-02-08T11:52:48.058Z,8.10
2019-02-08T11:57:49.333Z,8.00
2019-02-08T12:02:50.775Z,8.10
2019-02-08T12:07:52.033Z,8.20
2019-02-08T12:12:53.300Z,8.20
2019-02-08T12:17:54.560Z,8.50
2019-02-08T12:22:55.944Z,8.60
2019-02-08T12:27:57.295Z,8.50
2019-02-08T12:32:58.654Z,8.50
2019-02-08T12:38:00.100Z,8.50
2019-02-08T12:43:01.449Z,8.50
2019-02-08T12:48:03.810Z,8.70
2019-02-08T12:53:05.153Z,9.00
2019-02-08T12:58:06.502Z,9.10
2019-02-08T13:03:07.756Z,9.20
2019-02-08T13:08:09.220Z,9.20
2019-02-08T13:13:10.573Z,9.30
2019-02-08T13:18:11.851Z,9.40
2019-02-08T13:23:13.101Z,9.50
2019-02-08T13:28:14.366Z,9.50
2019-02-08T13:33:16.581Z,9.60
2019-02-08T13:38:17.910Z,9.70
2019-02-08T13:43:19.183Z,9.80
2019-02-08T13:48:20.632Z,9.60
2019-02-08T13:53:21.992Z,9.50
2019-02-08T13:58:23.343Z,9.40
2019-02-08T14:03:24.609Z,9.30
2019-02-08T14:08:25.934Z,9.30
2019-02-08T14:13:27.252Z,9.20
2019-02-08T14:18:28.515Z,9.20
2019-02-08T14:23:29.732Z,9.20
2019-02-08T14:28:30.977Z,9.20
2019-02-08T14:33:32.242Z,9.20
2019-02-08T14:38:33.482Z,9.10
2019-02-08T14:43:34.752Z,9.10
2019-02-08T14:48:36.023Z,9.00
2019-02-08T14:53:37.565Z,9.00
2019-02-08T14:58:38.924Z,9.10
2019-02-08T15:03:40.211Z,9.10
2019-02-08T15:08:41.642Z,9.20
2019-02-08T15:13:42.921Z,9.20
2019-02-08T15:18:45.128Z,9.30
2019-02-08T15:23:46.410Z,9.30
2019-02-08T15:28:47.751Z,9.30
2019-02-08T15:33:49.006Z,9.30
2019-02-08T15:38:50.296Z,9.20
2019-02-08T15:43:51.649Z,9.10
2019-02-08T15:48:52.926Z,9.10
2019-02-08T15:53:54.177Z,9.10
2019-02-08T15:58:55.439Z,9.10
2019-02-08T16:03:56.895Z,9.00
2019-02-08T16:08:58.272Z,9.00
2019-02-08T16:13:59.528Z,9.00
2019-02-08T16:19:00.840Z,8.90
2019-02-08T16:24:02.685Z,8.80
2019-02-08T16:29:04.583Z,8.80
2019-02-08T16:34:06.036Z,8.80
2019-02-08T16:39:07.999Z,8.80
2019-02-08T16:44:09.943Z,8.80
2019-02-08T16:49:11.212Z,8.70
2019-02-08T16:54:12.755Z,8.60
2019-02-08T16:59:14.015Z,8.50
2019-02-08T17:04:15.278Z,8.50
2019-02-08T17:09:17.894Z,8.40
2019-02-08T17:14:19.213Z,8.40
2019-02-08T17:19:20.705Z,8.20
2019-02-08T17:24:21.981Z,8.20
2019-02-08T17:29:23.249Z,8.00
2019-02-08T17:34:24.527Z,8.00
2019-02-08T17:39:25.908Z,7.90
2019-02-08T17:44:27.132Z,7.90
2019-02-08T17:49:28.392Z,7.90
2019-02-08T17:54:29.675Z,7.80
2019-02-08T17:59:30.906Z,7.70
2019-02-08T18:04:32.281Z,7.80
2019-02-08T18:09:33.654Z,7.80
2019-02-08T18:14:34.998Z,7.80
2019-02-08T18:19:36.981Z,7.80
2019-02-08T18:24:38.444Z,7.70
2019-02-08T18:29:39.828Z,7.70
2019-02-08T18:34:41.096Z,7.80
2019-02-08T18:39:42.343Z,7.70
2019-02-08T18:44:43.614Z,7.70
2019-02-08T18:49:44.964Z,7.70
2019-02-08T18:54:46.232Z,7.70
2019-02-08T18:59:47.525Z,7.70
2019-02-08T19:04:48.804Z,7.80
2019-02-08T19:09:50.039Z,7.70
2019-02-08T19:14:51.414Z,7.70
2019-02-08T19:19:52.668Z,7.70
2019-02-08T19:24:54.234Z,7.70
2019-02-08T19:29:55.538Z,7.70
2019-02-08T19:34:56.812Z,7.70
2019-02-08T19:39:58.095Z,7.60
2019-02-08T19:44:59.510Z,7.60
2019-02-08T19:50:00.896Z,7.60
2019-02-08T19:55:07.607Z,7.60
2019-02-08T20:00:19.963Z,7.70
2019-02-08T20:05:23.455Z,7.80
2019-02-08T20:10:38.449Z,7.90
2019-02-08T20:15:40.054Z,7.80
2019-02-08T20:20:41.419Z,7.80
2019-02-08T20:25:43.020Z,7.90
2019-02-08T20:30:44.543Z,8.00
2019-02-08T20:35:45.827Z,7.90
2019-02-08T20:40:49.515Z,8.00
2019-02-08T20:45:51.140Z,8.00
2019-02-08T20:50:52.819Z,8.00
2019-02-08T20:55:54.380Z,7.90
2019-02-08T21:00:55.833Z,8.00
2019-02-08T21:05:57.278Z,7.90
2019-02-08T21:10:58.527Z,7.80
2019-02-08T21:15:59.977Z,7.80
2019-02-08T21:21:01.241Z,7.80
2019-02-08T21:26:03.820Z,7.70
2019-02-08T21:31:05.191Z,7.70
2019-02-08T21:36:06.776Z,7.60
2019-02-08T21:41:08.225Z,7.60
2019-02-08T21:46:09.690Z,7.60
2019-02-08T21:51:10.968Z,7.60
2019-02-08T22:00:38.098Z,7.60
2019-02-08T22:10:23.600Z,7.60
2019-02-08T22:15:30.417Z,7.60
2019-02-08T22:20:20.308Z,7.60
2019-02-08T22:22:53.175Z,7.50
2019-02-08T22:25:27.335Z,7.50
2019-02-08T22:28:00.249Z,7.50
2019-02-08T22:30:33.787Z,7.40
2019-02-08T22:33:07.260Z,7.40
2019-02-08T22:35:40.442Z,7.30
2019-02-08T22:38:13.418Z,7.20
2019-02-08T22:40:46.284Z,7.30
2019-02-08T22:43:19.097Z,7.30
2019-02-08T22:45:51.939Z,7.30
2019-02-08T22:48:24.811Z,7.30
2019-02-08T22:50:57.594Z,7.40
2019-02-08T22:53:30.504Z,7.30
2019-02-08T22:56:03.533Z,7.20
2019-02-08T22:58:36.377Z,7.20
2019-02-08T23:01:43.357Z,7.20
2019-02-08T23:04:16.211Z,7.20
2019-02-08T23:06:49.040Z,7.10
2019-02-08T23:09:23.401Z,7.10
2019-02-08T23:11:56.412Z,7.10
2019-02-08T23:14:29.989Z,7.10
2019-02-08T23:17:03.156Z,7.10
2019-02-08T23:19:35.975Z,7.10
2019-02-08T23:22:08.883Z,7.10
2019-02-08T23:24:41.752Z,7.10
2019-02-08T23:27:14.609Z,7.10
2019-02-08T23:29:47.525Z,7.10
2019-02-08T23:32:20.347Z,7.20
2019-02-08T23:34:53.192Z,7.10
2019-02-08T23:37:26.263Z,7.10
2019-02-08T23:39:59.239Z,7.10
2019-02-08T23:42:32.068Z,7.10
2019-02-08T23:45:06.260Z,7.10
2019-02-08T23:47:39.101Z,7.00
2019-02-08T23:50:12.518Z,7.00
2019-02-08T23:52:45.464Z,7.00
2019-02-08T23:55:18.576Z,7.00
2019-02-08T23:57:51.439Z,7.10
